createdAt,value
2022-10-11T00:00:58.690Z,78.77
2022-10-11T00:03:35.108Z,78.80
2022-10-11T00:06:05.861Z,78.96
2022-10-11T00:08:34.421Z,79.05
2022-10-11T00:11:06.054Z,79.11
2022-10-11T00:13:35.004Z,79.40
2022-10-11T00:16:08.698Z,79.27
2022-10-11T00:18:36.797Z,79.41
2022-10-11T00:21:08.494Z,79.57
2022-10-11T00:23:37.283Z,79.64
2022-10-11T00:26:07.935Z,79.62
2022-10-11T00:28:36.965Z,79.72
2022-10-11T00:31:10.408Z,79.84
2022-10-11T00:33:38.473Z,79.97
2022-10-11T00:36:08.760Z,80.16
2022-10-11T00:38:37.071Z,80.32
2022-10-11T00:41:05.039Z,80.30
2022-10-11T00:43:34.243Z,80.36
2022-10-11T00:46:08.139Z,80.48
2022-10-11T00:49:04.474Z,80.54
2022-10-11T00:51:35.339Z,80.62
2022-10-11T00:54:03.927Z,80.64
2022-10-11T00:56:36.986Z,80.87
2022-10-11T00:59:12.628Z,81.11
2022-10-11T01:01:40.981Z,81.33
2022-10-11T01:04:08.878Z,81.14
2022-10-11T01:06:36.880Z,81.22
2022-10-11T01:09:04.909Z,81.39
2022-10-11T01:11:42.787Z,81.43
2022-10-11T01:14:47.852Z,81.61
2022-10-11T01:17:21.343Z,81.74
2022-10-11T01:20:09.895Z,81.74
2022-10-11T01:23:16.365Z,81.82
2022-10-11T01:25:49.867Z,81.84
2022-10-11T01:28:25.430Z,81.96
2022-10-11T01:30:57.462Z,82.08
2022-10-11T01:33:48.008Z,81.81
2022-10-11T01:36:34.399Z,81.95
2022-10-11T01:39:04.819Z,82.27
2022-10-11T01:41:39.372Z,82.42
2022-10-11T01:44:09.567Z,82.65
2022-10-11T01:46:37.608Z,82.80
2022-10-11T01:49:05.997Z,82.92
2022-10-11T01:51:38.151Z,83.21
2022-10-11T01:54:13.938Z,83.31
2022-10-11T01:57:07.364Z,83.28
2022-10-11T01:59:57.968Z,83.28
2022-10-11T02:03:03.817Z,83.35
2022-10-11T02:05:48.548Z,83.33
2022-10-11T02:08:50.548Z,83.17
2022-10-11T02:11:29.302Z,82.83
2022-10-11T02:14:25.570Z,82.99
2022-10-11T02:17:04.222Z,83.03
2022-10-11T02:19:38.640Z,83.00
2022-10-11T02:22:10.417Z,83.24
2022-10-11T02:24:42.015Z,83.24
2022-10-11T02:27:11.481Z,83.28
2022-10-11T02:29:43.826Z,83.33
2022-10-11T02:32:12.913Z,83.62
2022-10-11T02:34:47.476Z,83.61
2022-10-11T02:37:26.873Z,83.74
2022-10-11T02:40:01.497Z,83.65
2022-10-11T02:42:36.631Z,83.56
2022-10-11T02:45:34.753Z,83.20
2022-10-11T02:48:03.696Z,83.40
2022-10-11T02:50:31.773Z,83.13
2022-10-11T02:52:59.528Z,83.10
2022-10-11T02:55:27.396Z,83.05
2022-10-11T02:57:55.163Z,82.86
2022-10-11T03:00:23.026Z,82.91
2022-10-11T03:02:50.888Z,83.04
2022-10-11T03:05:18.807Z,83.08
2022-10-11T03:07:46.752Z,82.98
2022-10-11T03:10:14.760Z,83.09
2022-10-11T03:12:42.655Z,83.01
2022-10-11T03:15:10.932Z,83.28
2022-10-11T03:17:38.832Z,83.40
2022-10-11T03:20:07.607Z,83.40
2022-10-11T03:22:35.757Z,83.32
2022-10-11T03:25:04.873Z,82.94
2022-10-11T03:27:34.124Z,83.18
2022-10-11T03:30:02.434Z,83.33
2022-10-11T03:32:30.615Z,83.23
2022-10-11T03:34:58.465Z,83.51
2022-10-11T03:37:27.080Z,83.44
2022-10-11T03:39:54.819Z,83.89
2022-10-11T03:42:22.580Z,83.93
2022-10-11T03:44:52.118Z,83.91
2022-10-11T03:47:20.252Z,84.16
2022-10-11T03:49:48.046Z,84.22
2022-10-11T03:52:15.800Z,84.42
2022-10-11T03:54:43.848Z,84.47
2022-10-11T03:57:11.608Z,84.58
2022-10-11T03:59:39.373Z,84.48
2022-10-11T04:02:07.360Z,84.60
2022-10-11T04:04:35.411Z,84.36
2022-10-11T04:07:03.593Z,84.47
2022-10-11T04:09:31.403Z,84.41
2022-10-11T04:11:59.424Z,84.77
2022-10-11T04:14:27.508Z,84.98
2022-10-11T04:16:59.538Z,85.02
2022-10-11T04:19:28.275Z,85.01
2022-10-11T04:21:56.018Z,85.10
2022-10-11T04:24:23.766Z,85.05
2022-10-11T04:26:51.567Z,85.04
2022-10-11T04:29:19.309Z,85.13
2022-10-11T04:31:47.155Z,85.13
2022-10-11T04:34:15.024Z,85.22
2022-10-11T04:36:45.298Z,85.42
2022-10-11T04:39:17.102Z,85.42
2022-10-11T04:41:45.067Z,85.33
2022-10-11T04:44:12.793Z,85.35
2022-10-11T04:46:40.595Z,85.38
2022-10-11T04:49:08.972Z,85.53
2022-10-11T04:51:36.835Z,85.49
2022-10-11T04:54:04.701Z,85.67
2022-10-11T04:56:32.572Z,85.75
2022-10-11T04:59:00.336Z,85.71
2022-10-11T05:01:28.098Z,85.75
2022-10-11T05:03:55.960Z,85.88
2022-10-11T05:06:24.400Z,85.92
2022-10-11T05:08:52.424Z,85.79
2022-10-11T05:11:20.686Z,85.95
2022-10-11T05:13:48.494Z,85.83
2022-10-11T05:16:16.892Z,86.10
2022-10-11T05:18:45.083Z,86.17
2022-10-11T05:21:20.047Z,86.42
2022-10-11T05:23:49.904Z,86.44
2022-10-11T05:26:19.319Z,86.45
2022-10-11T05:28:48.110Z,86.47
2022-10-11T05:31:16.928Z,86.54
2022-10-11T05:33:45.095Z,86.48
2022-10-11T05:36:13.270Z,86.29
2022-10-11T05:38:41.204Z,86.15
2022-10-11T05:41:09.492Z,86.24
2022-10-11T05:43:37.781Z,86.56
2022-10-11T05:46:06.855Z,86.39
2022-10-11T05:48:35.072Z,86.42
2022-10-11T05:51:05.648Z,86.38
2022-10-11T05:53:33.515Z,86.34
2022-10-11T05:56:01.833Z,86.32
2022-10-11T05:58:29.879Z,86.43
2022-10-11T06:00:57.970Z,86.54
2022-10-11T06:03:25.829Z,86.73
2022-10-11T06:05:56.991Z,86.62
2022-10-11T06:08:25.215Z,86.54
2022-10-11T06:10:53.121Z,86.41
2022-10-11T06:13:20.876Z,86.26
2022-10-11T06:15:48.756Z,86.03
2022-10-11T06:18:16.528Z,85.77
2022-10-11T06:20:44.269Z,85.57
2022-10-11T06:23:12.346Z,85.45
2022-10-11T06:25:40.424Z,85.25
2022-10-11T06:28:08.243Z,85.08
2022-10-11T06:30:36.140Z,84.97
2022-10-11T06:33:05.060Z,84.82
2022-10-11T06:35:33.001Z,84.67
2022-10-11T06:38:00.781Z,84.49
2022-10-11T06:40:28.534Z,84.21
2022-10-11T06:42:56.495Z,84.11
2022-10-11T06:45:24.356Z,83.98
2022-10-11T06:47:52.124Z,83.97
2022-10-11T06:50:34.799Z,83.92
2022-10-11T06:53:08.485Z,83.82
2022-10-11T06:55:36.301Z,83.72
2022-10-11T06:58:04.167Z,83.79
2022-10-11T07:00:32.027Z,83.76
2022-10-11T07:03:00.567Z,83.76
2022-10-11T07:05:29.707Z,83.81
2022-10-11T07:07:57.434Z,83.79
2022-10-11T07:10:25.208Z,83.88
2022-10-11T07:12:53.242Z,84.07
2022-10-11T07:15:21.285Z,84.18
2022-10-11T07:17:49.013Z,84.18
2022-10-11T07:20:16.847Z,84.28
2022-10-11T07:22:44.565Z,84.34
2022-10-11T07:25:12.334Z,84.25
2022-10-11T07:27:40.091Z,84.36
2022-10-11T07:30:08.376Z,84.28
2022-10-11T07:32:36.097Z,84.32
2022-10-11T07:35:04.150Z,84.14
2022-10-11T07:37:33.250Z,84.06
2022-10-11T07:40:01.273Z,84.03
2022-10-11T07:42:29.024Z,83.69
2022-10-11T07:44:57.095Z,83.13
2022-10-11T07:47:24.863Z,82.90
2022-10-11T07:49:52.981Z,82.64
2022-10-11T07:52:20.739Z,82.48
2022-10-11T07:54:49.646Z,82.41
2022-10-11T07:57:17.445Z,82.21
2022-10-11T07:59:50.004Z,82.17
2022-10-11T08:02:18.192Z,82.14
2022-10-11T08:04:45.961Z,82.20
2022-10-11T08:07:14.033Z,82.07
2022-10-11T08:09:41.789Z,82.01
2022-10-11T08:12:10.154Z,82.03
2022-10-11T08:14:37.983Z,82.10
2022-10-11T08:17:05.773Z,82.22
2022-10-11T08:19:34.112Z,82.14
2022-10-11T08:22:02.055Z,82.08
2022-10-11T08:24:31.064Z,82.17
2022-10-11T08:27:01.362Z,82.05
2022-10-11T08:29:29.322Z,81.91
2022-10-11T08:31:57.198Z,81.72
2022-10-11T08:34:25.267Z,81.65
2022-10-11T08:36:53.130Z,81.61
2022-10-11T08:39:21.440Z,81.37
2022-10-11T08:42:02.373Z,81.08
2022-10-11T08:45:10.052Z,80.77
2022-10-11T08:47:42.322Z,80.38
2022-10-11T08:50:20.547Z,80.15
2022-10-11T08:52:53.899Z,80.30
2022-10-11T08:55:45.157Z,80.26
2022-10-11T08:58:16.626Z,80.28
2022-10-11T09:00:47.085Z,80.01
2022-10-11T09:03:38.157Z,79.64
2022-10-11T09:06:21.572Z,79.66
2022-10-11T09:09:20.722Z,79.63
2022-10-11T09:11:51.194Z,79.62
2022-10-11T09:14:40.419Z,79.64
2022-10-11T09:17:32.598Z,79.46
2022-10-11T09:20:30.364Z,79.52
2022-10-11T09:23:28.536Z,79.58
2022-10-11T09:26:05.536Z,79.18
2022-10-11T09:28:41.984Z,79.17
2022-10-11T09:31:11.696Z,78.88
2022-10-11T09:33:45.395Z,78.29
2022-10-11T09:36:28.557Z,78.26
2022-10-11T09:39:06.481Z,77.70
2022-10-11T09:41:59.269Z,77.35
2022-10-11T09:44:35.536Z,77.17
2022-10-11T09:47:04.934Z,76.95
2022-10-11T09:49:42.839Z,77.12
2022-10-11T09:52:20.121Z,77.33
2022-10-11T09:54:51.571Z,77.35
2022-10-11T09:57:29.895Z,77.48
2022-10-11T10:00:02.296Z,77.35
2022-10-11T10:02:39.241Z,77.19
2022-10-11T10:05:07.202Z,76.89
2022-10-11T10:07:36.298Z,76.15
2022-10-11T10:10:41.607Z,75.85
2022-10-11T10:13:29.254Z,75.12
2022-10-11T10:16:00.216Z,75.02
2022-10-11T10:18:36.402Z,73.31
2022-10-11T10:21:11.977Z,74.71
2022-10-11T10:23:45.375Z,74.70
2022-10-11T10:26:21.498Z,74.65
2022-10-11T10:29:11.460Z,73.69
2022-10-11T10:32:13.891Z,73.19
2022-10-11T10:35:08.422Z,72.12
2022-10-11T10:37:54.501Z,70.93
2022-10-11T10:40:43.910Z,70.09
2022-10-11T10:43:20.707Z,68.52
2022-10-11T10:46:10.671Z,68.87
2022-10-11T10:49:41.250Z,68.47
2022-10-11T10:55:17.059Z,67.22
2022-10-11T10:58:15.084Z,67.28
2022-10-11T11:01:03.389Z,66.87
2022-10-11T11:03:49.993Z,65.60
2022-10-11T11:06:39.478Z,65.15
2022-10-11T11:09:42.449Z,64.32
2022-10-11T11:12:27.169Z,64.02
2022-10-11T11:15:07.350Z,64.65
2022-10-11T11:18:02.198Z,63.85
2022-10-11T11:20:44.079Z,62.31
2022-10-11T11:23:29.370Z,62.77
2022-10-11T11:26:27.356Z,61.14
2022-10-11T11:29:18.007Z,62.30
2022-10-11T11:31:59.456Z,62.01
2022-10-11T11:34:49.854Z,62.23
2022-10-11T11:37:32.875Z,63.08
2022-10-11T11:40:16.773Z,62.71
2022-10-11T11:43:00.798Z,61.89
2022-10-11T11:45:49.151Z,60.65
2022-10-11T11:48:26.898Z,60.46
2022-10-11T11:51:16.219Z,59.36
2022-10-11T11:54:29.724Z,61.18
2022-10-11T11:57:29.621Z,59.52
2022-10-11T12:00:06.510Z,58.13
2022-10-11T12:03:04.197Z,58.01
2022-10-11T12:05:36.904Z,57.72
2022-10-11T12:08:28.021Z,57.89
2022-10-11T12:11:20.499Z,58.04
2022-10-11T12:14:00.954Z,58.57
2022-10-11T12:16:32.687Z,58.72
2022-10-11T12:19:30.455Z,58.69
2022-10-11T12:22:40.716Z,58.26
2022-10-11T12:28:53.131Z,56.70
2022-10-11T12:31:34.799Z,57.73
2022-10-11T12:34:13.055Z,57.91
2022-10-11T12:36:48.087Z,58.07
2022-10-11T12:39:26.500Z,58.38
2022-10-11T12:42:19.497Z,58.42
2022-10-11T12:45:15.367Z,57.97
2022-10-11T12:48:08.006Z,57.93
2022-10-11T12:51:05.288Z,57.99
2022-10-11T12:53:33.791Z,56.82
2022-10-11T12:56:19.819Z,57.56
2022-10-11T12:58:50.633Z,56.69
2022-10-11T13:01:46.233Z,56.31
2022-10-11T13:04:40.677Z,55.23
2022-10-11T13:07:25.964Z,54.48
2022-10-11T13:09:56.106Z,54.77
2022-10-11T13:12:48.832Z,55.18
2022-10-11T13:15:26.177Z,55.67
2022-10-11T13:18:07.279Z,55.06
2022-10-11T13:20:42.630Z,55.13
2022-10-11T13:23:30.487Z,55.75
2022-10-11T13:26:05.690Z,56.70
2022-10-11T13:29:01.741Z,56.48
2022-10-11T13:31:43.762Z,56.96
2022-10-11T13:34:23.055Z,56.13
2022-10-11T13:37:01.755Z,56.39
2022-10-11T13:39:42.084Z,56.59
2022-10-11T13:42:16.537Z,56.17
2022-10-11T13:44:47.156Z,54.65
2022-10-11T13:47:18.842Z,53.90
2022-10-11T13:49:53.357Z,54.53
2022-10-11T13:52:24.237Z,54.50
2022-10-11T13:55:11.614Z,54.72
2022-10-11T13:57:45.511Z,54.65
2022-10-11T14:00:16.649Z,54.65
2022-10-11T14:03:01.817Z,54.54
2022-10-11T14:05:29.989Z,54.99
2022-10-11T14:08:02.052Z,54.43
2022-10-11T14:10:30.328Z,54.91
2022-10-11T14:13:23.929Z,54.96
2022-10-11T14:16:29.134Z,55.37
2022-10-11T14:19:00.381Z,55.76
2022-10-11T14:21:28.168Z,55.98
2022-10-11T14:23:59.798Z,56.35
2022-10-11T14:26:35.694Z,56.79
2022-10-11T14:29:27.172Z,57.05
2022-10-11T14:32:08.428Z,57.59
2022-10-11T14:34:37.033Z,57.48
2022-10-11T14:37:05.310Z,57.46
2022-10-11T14:39:33.686Z,57.46
2022-10-11T14:42:01.859Z,58.17
2022-10-11T14:44:29.724Z,57.44
2022-10-11T14:46:57.490Z,57.46
2022-10-11T14:49:30.704Z,57.70
2022-10-11T14:51:59.284Z,58.15
2022-10-11T14:54:29.001Z,58.67
2022-10-11T14:56:59.501Z,58.75
2022-10-11T14:59:34.658Z,59.15
2022-10-11T15:02:04.305Z,59.47
2022-10-11T15:04:32.214Z,59.87
2022-10-11T15:07:00.105Z,60.23
2022-10-11T15:09:28.349Z,60.37
2022-10-11T15:11:57.102Z,60.80
2022-10-11T15:14:25.793Z,60.79
2022-10-11T15:16:55.019Z,61.18
2022-10-11T15:19:25.075Z,61.60
2022-10-11T15:21:53.007Z,61.89
2022-10-11T15:24:20.934Z,62.40
2022-10-11T15:26:49.251Z,62.49
2022-10-11T15:29:18.058Z,62.70
2022-10-11T15:31:46.714Z,63.08
2022-10-11T15:34:14.697Z,63.31
2022-10-11T15:36:42.654Z,63.44
2022-10-11T15:39:43.084Z,63.66
2022-10-11T15:42:10.873Z,63.84
2022-10-11T15:44:38.658Z,64.02
2022-10-11T15:47:06.474Z,64.19
2022-10-11T15:49:34.209Z,64.31
2022-10-11T15:52:02.101Z,64.54
2022-10-11T15:54:30.480Z,64.69
2022-10-11T15:56:58.960Z,64.99
2022-10-11T15:59:27.030Z,66.14
2022-10-11T16:01:54.944Z,66.31
2022-10-11T16:04:22.773Z,66.59
2022-10-11T16:06:50.487Z,67.30
2022-10-11T16:09:18.217Z,67.54
2022-10-11T16:11:46.028Z,67.84
2022-10-11T16:14:13.771Z,68.45
2022-10-11T16:16:41.523Z,68.87
2022-10-11T16:19:09.646Z,69.22
2022-10-11T16:21:37.415Z,69.53
2022-10-11T16:24:05.375Z,69.80
2022-10-11T16:26:33.360Z,70.28
2022-10-11T16:29:01.236Z,70.64
2022-10-11T16:31:29.204Z,70.82
2022-10-11T16:33:57.864Z,71.18
2022-10-11T16:36:40.846Z,71.42
2022-10-11T16:39:13.760Z,71.72
2022-10-11T16:41:42.848Z,71.86
2022-10-11T16:44:15.684Z,72.18
2022-10-11T16:46:48.150Z,72.52
2022-10-11T16:49:18.656Z,72.79
2022-10-11T16:51:46.400Z,72.94
2022-10-11T16:54:19.300Z,73.31
2022-10-11T16:56:49.691Z,73.73
2022-10-11T16:59:17.901Z,73.93
2022-10-11T17:01:46.479Z,74.28
2022-10-11T17:04:14.964Z,74.45
2022-10-11T17:06:44.249Z,74.67
2022-10-11T17:09:12.320Z,74.74
2022-10-11T17:11:40.900Z,74.86
2022-10-11T17:14:10.612Z,75.11
2022-10-11T17:16:38.475Z,75.32
2022-10-11T17:19:09.908Z,75.57
2022-10-11T17:21:38.653Z,75.55
2022-10-11T17:24:07.461Z,75.73
2022-10-11T17:26:35.276Z,76.09
2022-10-11T17:29:03.069Z,76.29
2022-10-11T17:31:31.098Z,76.33
2022-10-11T17:34:00.725Z,76.61
2022-10-11T17:36:32.062Z,76.85
2022-10-11T17:39:04.736Z,77.11
2022-10-11T17:41:32.586Z,77.27
2022-10-11T17:44:01.872Z,77.40
2022-10-11T17:46:32.873Z,77.69
2022-10-11T17:49:04.928Z,77.88
2022-10-11T17:51:35.084Z,77.83
2022-10-11T17:54:03.989Z,77.88
2022-10-11T17:56:37.438Z,78.05
2022-10-11T17:59:06.724Z,78.17
2022-10-11T18:01:35.065Z,78.24
2022-10-11T18:04:05.039Z,78.53
2022-10-11T18:06:38.884Z,78.76
2022-10-11T18:09:06.978Z,78.96
2022-10-11T18:11:35.481Z,79.26
2022-10-11T18:14:04.595Z,79.38
2022-10-11T18:16:33.130Z,79.57
2022-10-11T18:19:03.969Z,79.65
2022-10-11T18:21:34.500Z,79.69
2022-10-11T18:24:05.091Z,79.61
2022-10-11T18:26:32.882Z,79.79
2022-10-11T18:29:00.917Z,79.88
2022-10-11T18:31:30.531Z,80.09
2022-10-11T18:33:58.353Z,80.10
2022-10-11T18:36:29.336Z,80.20
2022-10-11T18:38:59.989Z,80.47
2022-10-11T18:41:31.717Z,80.43
2022-10-11T18:44:05.078Z,80.43
2022-10-11T18:46:33.619Z,80.47
2022-10-11T18:49:02.320Z,80.56
2022-10-11T18:51:33.937Z,80.53
2022-10-11T18:54:02.469Z,80.55
2022-10-11T18:56:32.495Z,80.64
2022-10-11T18:59:00.318Z,80.54
2022-10-11T19:01:31.172Z,80.70
2022-10-11T19:04:00.396Z,80.72
2022-10-11T19:06:31.772Z,80.82
2022-10-11T19:09:11.783Z,80.80
2022-10-11T19:11:40.563Z,80.86
2022-10-11T19:14:14.890Z,80.89
2022-10-11T19:16:51.690Z,80.93
2022-10-11T19:19:22.583Z,80.97
2022-10-11T19:21:50.667Z,81.05
2022-10-11T19:24:21.127Z,81.31
2022-10-11T19:26:50.515Z,81.37
2022-10-11T19:29:20.089Z,81.44
2022-10-11T19:31:56.405Z,81.47
2022-10-11T19:34:30.038Z,81.48
2022-10-11T19:37:00.839Z,81.46
2022-10-11T19:39:29.782Z,81.49
2022-10-11T19:41:57.645Z,81.50
2022-10-11T19:44:25.427Z,81.53
2022-10-11T19:46:53.408Z,81.66
2022-10-11T19:49:25.061Z,81.59
2022-10-11T19:51:53.884Z,81.78
2022-10-11T19:54:22.410Z,81.85
2022-10-11T19:56:50.551Z,81.88
2022-10-11T19:59:18.970Z,82.01
2022-10-11T20:01:52.354Z,82.09
2022-10-11T20:07:09.598Z,82.12
2022-10-11T20:09:37.367Z,82.08
2022-10-11T20:12:05.807Z,82.18
2022-10-11T20:14:33.658Z,82.17
2022-10-11T20:17:01.382Z,82.22
2022-10-11T20:19:31.211Z,82.26
2022-10-11T20:22:01.182Z,82.21
2022-10-11T20:24:33.488Z,82.19
2022-10-11T20:27:06.598Z,82.30
2022-10-11T20:29:34.879Z,82.55
2022-10-11T20:32:02.934Z,82.48
2022-10-11T20:34:31.176Z,82.43
2022-10-11T20:36:59.319Z,82.61
2022-10-11T20:39:27.279Z,82.55
2022-10-11T20:41:55.142Z,82.42
2022-10-11T20:44:23.216Z,82.53
2022-10-11T20:46:51.397Z,82.77
2022-10-11T20:49:20.162Z,82.80
2022-10-11T20:51:48.511Z,82.81
2022-10-11T20:54:16.931Z,82.69
2022-10-11T20:56:44.793Z,82.77
2022-10-11T20:59:12.692Z,82.94
2022-10-11T21:01:41.838Z,82.69
2022-10-11T21:04:17.917Z,82.83
2022-10-11T21:06:47.345Z,82.76
2022-10-11T21:09:17.037Z,82.70
2022-10-11T21:11:45.015Z,82.64
2022-10-11T21:14:12.915Z,82.64
2022-10-11T21:16:40.700Z,82.74
2022-10-11T21:19:13.396Z,82.71
2022-10-11T21:21:41.577Z,82.90
2022-10-11T21:24:09.850Z,82.80
2022-10-11T21:26:37.656Z,82.92
2022-10-11T21:29:05.618Z,82.97
2022-10-11T21:31:34.570Z,82.98
2022-10-11T21:34:05.406Z,82.98
2022-10-11T21:36:33.753Z,83.05
2022-10-11T21:39:01.658Z,83.02
2022-10-11T21:41:34.134Z,83.04
2022-10-11T21:44:01.995Z,82.97
2022-10-11T21:47:01.163Z,82.98
2022-10-11T21:49:20.136Z,83.13
2022-10-11T21:51:48.630Z,83.09
2022-10-11T21:54:17.029Z,83.04
2022-10-11T21:56:44.877Z,82.97
2022-10-11T21:59:12.921Z,83.02
2022-10-11T22:01:42.065Z,82.97
2022-10-11T22:04:11.168Z,83.07
2022-10-11T22:06:39.733Z,83.22
2022-10-11T22:09:08.689Z,83.22
2022-10-11T22:11:37.642Z,83.38
2022-10-11T22:14:06.000Z,83.48
2022-10-11T22:16:35.230Z,83.62
2022-10-11T22:19:03.651Z,83.62
2022-10-11T22:21:32.131Z,83.56
2022-10-11T22:24:00.257Z,83.56
2022-10-11T22:26:30.817Z,83.52
2022-10-11T22:29:00.246Z,83.50
2022-10-11T22:31:29.336Z,83.57
2022-10-11T22:33:59.247Z,83.59
2022-10-11T22:36:30.750Z,83.51
2022-10-11T22:38:59.067Z,83.58
2022-10-11T22:41:27.043Z,83.67
2022-10-11T22:43:54.797Z,83.80
2022-10-11T22:46:22.630Z,83.73
2022-10-11T22:48:50.386Z,83.84
2022-10-11T22:51:18.176Z,83.99
2022-10-11T22:53:46.057Z,84.11
2022-10-11T22:56:14.253Z,84.25
2022-10-11T22:58:42.125Z,84.31
2022-10-11T23:01:12.532Z,84.26
2022-10-11T23:03:40.474Z,84.32
2022-10-11T23:06:09.044Z,84.30
2022-10-11T23:08:36.831Z,84.38
2022-10-11T23:11:06.658Z,84.32
2022-10-11T23:13:35.234Z,84.19
2022-10-11T23:16:11.802Z,84.15
2022-10-11T23:18:39.765Z,84.20
2022-10-11T23:21:08.555Z,84.20
2022-10-11T23:23:36.620Z,84.21
2022-10-11T23:26:07.661Z,84.15
2022-10-11T23:28:36.226Z,84.14
2022-10-11T23:31:12.729Z,84.03
2022-10-11T23:33:41.073Z,83.98
2022-10-11T23:36:17.745Z,84.06
2022-10-11T23:38:50.651Z,84.23
2022-10-11T23:41:18.610Z,84.34
2022-10-11T23:43:46.580Z,84.42
2022-10-11T23:46:14.452Z,84.58
2022-10-11T23:48:42.412Z,84.64
2022-10-11T23:51:10.689Z,84.58
2022-10-11T23:53:38.553Z,84.50
2022-10-11T23:56:07.433Z,84.53
2022-10-11T23:58:35.420Z,84.53
